sensor_id;sensor_type;location;lat;lon;timestamp;P1;durP1;ratioP1;P2;durP2;ratioP2
35745;SDS011;21870;42.812;74.628;2023-02-23T00:01:27;23.58;;;7.90;;
35745;SDS011;21870;42.812;74.628;2023-02-23T00:03:55;22.60;;;7.63;;
35745;SDS011;21870;42.812;74.628;2023-02-23T00:06:23;29.55;;;12.10;;
35745;SDS011;21870;42.812;74.628;2023-02-23T00:08:51;18.65;;;7.45;;
35745;SDS011;21870;42.812;74.628;2023-02-23T00:11:17;26.88;;;7.78;;
35745;SDS011;21870;42.812;74.628;2023-02-23T00:13:46;19.73;;;7.85;;
35745;SDS011;21870;42.812;74.628;2023-02-23T00:16:21;29.50;;;8.48;;
35745;SDS011;21870;42.812;74.628;2023-02-23T00:18:50;23.13;;;8.60;;
35745;SDS011;21870;42.812;74.628;2023-02-23T00:21:22;23.65;;;8.25;;
35745;SDS011;21870;42.812;74.628;2023-02-23T00:23:53;15.55;;;7.38;;
35745;SDS011;21870;42.812;74.628;2023-02-23T00:26:25;12.82;;;6.80;;
35745;SDS011;21870;42.812;74.628;2023-02-23T00:28:55;20.83;;;7.75;;
35745;SDS011;21870;42.812;74.628;2023-02-23T00:31:22;23.60;;;7.97;;
35745;SDS011;21870;42.812;74.628;2023-02-23T00:33:55;14.63;;;7.82;;
35745;SDS011;21870;42.812;74.628;2023-02-23T00:36:24;17.98;;;7.88;;
35745;SDS011;21870;42.812;74.628;2023-02-23T00:38:53;19.42;;;6.82;;
35745;SDS011;21870;42.812;74.628;2023-02-23T00:41:20;19.15;;;7.18;;
35745;SDS011;21870;42.812;74.628;2023-02-23T00:43:56;28.35;;;8.45;;
35745;SDS011;21870;42.812;74.628;2023-02-23T00:46:25;23.45;;;6.45;;
35745;SDS011;21870;42.812;74.628;2023-02-23T00:48:53;19.92;;;7.00;;
35745;SDS011;21870;42.812;74.628;2023-02-23T00:51:21;22.77;;;7.88;;
35745;SDS011;21870;42.812;74.628;2023-02-23T00:53:52;16.52;;;6.80;;
35745;SDS011;21870;42.812;74.628;2023-02-23T00:56:18;19.30;;;6.35;;
35745;SDS011;21870;42.812;74.628;2023-02-23T00:58:46;21.17;;;7.95;;
35745;SDS011;21870;42.812;74.628;2023-02-23T01:01:12;19.80;;;7.22;;
35745;SDS011;21870;42.812;74.628;2023-02-23T01:03:40;19.77;;;7.72;;
35745;SDS011;21870;42.812;74.628;2023-02-23T01:06:07;24.05;;;7.70;;
35745;SDS011;21870;42.812;74.628;2023-02-23T01:08:37;30.42;;;7.75;;
35745;SDS011;21870;42.812;74.628;2023-02-23T01:11:06;28.38;;;8.50;;
35745;SDS011;21870;42.812;74.628;2023-02-23T01:13:34;25.67;;;7.45;;
35745;SDS011;21870;42.812;74.628;2023-02-23T01:16:07;20.27;;;7.78;;
35745;SDS011;21870;42.812;74.628;2023-02-23T01:18:35;17.10;;;7.13;;
35745;SDS011;21870;42.812;74.628;2023-02-23T01:21:06;14.52;;;7.22;;
35745;SDS011;21870;42.812;74.628;2023-02-23T01:23:44;19.60;;;7.25;;
35745;SDS011;21870;42.812;74.628;2023-02-23T01:26:21;19.58;;;7.20;;
35745;SDS011;21870;42.812;74.628;2023-02-23T01:28:53;26.23;;;7.85;;
35745;SDS011;21870;42.812;74.628;2023-02-23T01:31:22;27.27;;;9.80;;
35745;SDS011;21870;42.812;74.628;2023-02-23T01:33:52;28.08;;;15.25;;
35745;SDS011;21870;42.812;74.628;2023-02-23T01:36:19;21.90;;;7.78;;
35745;SDS011;21870;42.812;74.628;2023-02-23T01:38:47;14.38;;;7.13;;
35745;SDS011;21870;42.812;74.628;2023-02-23T01:41:14;24.50;;;7.50;;
35745;SDS011;21870;42.812;74.628;2023-02-23T01:46:25;23.00;;;6.75;;
35745;SDS011;21870;42.812;74.628;2023-02-23T01:48:51;22.83;;;8.23;;
35745;SDS011;21870;42.812;74.628;2023-02-23T01:51:20;18.90;;;6.47;;
35745;SDS011;21870;42.812;74.628;2023-02-23T01:53:53;16.23;;;7.72;;
35745;SDS011;21870;42.812;74.628;2023-02-23T01:56:43;18.00;;;6.60;;
35745;SDS011;21870;42.812;74.628;2023-02-23T01:59:23;10.77;;;5.85;;
35745;SDS011;21870;42.812;74.628;2023-02-23T02:01:53;19.67;;;8.02;;
35745;SDS011;21870;42.812;74.628;2023-02-23T02:04:21;20.00;;;8.05;;
35745;SDS011;21870;42.812;74.628;2023-02-23T02:06:49;21.92;;;7.32;;
35745;SDS011;21870;42.812;74.628;2023-02-23T02:09:18;19.73;;;7.38;;
35745;SDS011;21870;42.812;74.628;2023-02-23T02:11:49;21.92;;;7.65;;
35745;SDS011;21870;42.812;74.628;2023-02-23T02:14:23;18.33;;;7.18;;
35745;SDS011;21870;42.812;74.628;2023-02-23T02:28:29;18.92;;;7.70;;
35745;SDS011;21870;42.812;74.628;2023-02-23T02:37:25;38.05;;;20.13;;
35745;SDS011;21870;42.812;74.628;2023-02-23T02:45:49;34.40;;;13.40;;
35745;SDS011;21870;42.812;74.628;2023-02-23T02:48:38;48.88;;;20.20;;
35745;SDS011;21870;42.812;74.628;2023-02-23T02:51:15;51.25;;;23.25;;
35745;SDS011;21870;42.812;74.628;2023-02-23T02:56:39;36.70;;;16.02;;
35745;SDS011;21870;42.812;74.628;2023-02-23T02:59:11;35.55;;;13.85;;
35745;SDS011;21870;42.812;74.628;2023-02-23T03:01:57;40.20;;;13.20;;
35745;SDS011;21870;42.812;74.628;2023-02-23T03:04:42;36.30;;;12.60;;
35745;SDS011;21870;42.812;74.628;2023-02-23T03:07:39;21.58;;;12.38;;
35745;SDS011;21870;42.812;74.628;2023-02-23T03:10:46;34.20;;;14.68;;
35745;SDS011;21870;42.812;74.628;2023-02-23T03:17:07;20.35;;;7.57;;
35745;SDS011;21870;42.812;74.628;2023-02-23T03:20:21;44.40;;;11.75;;
35745;SDS011;21870;42.812;74.628;2023-02-23T03:32:02;23.92;;;9.25;;
35745;SDS011;21870;42.812;74.628;2023-02-23T03:37:56;17.80;;;8.52;;
35745;SDS011;21870;42.812;74.628;2023-02-23T03:40:48;27.80;;;10.07;;
35745;SDS011;21870;42.812;74.628;2023-02-23T03:43:41;26.50;;;11.13;;
35745;SDS011;21870;42.812;74.628;2023-02-23T03:46:31;19.13;;;7.93;;
35745;SDS011;21870;42.812;74.628;2023-02-23T03:49:18;20.67;;;8.10;;
35745;SDS011;21870;42.812;74.628;2023-02-23T03:52:06;24.15;;;8.55;;
35745;SDS011;21870;42.812;74.628;2023-02-23T03:55:08;23.25;;;7.57;;
35745;SDS011;21870;42.812;74.628;2023-02-23T03:58:00;18.40;;;8.07;;
35745;SDS011;21870;42.812;74.628;2023-02-23T04:00:47;23.17;;;7.18;;
35745;SDS011;21870;42.812;74.628;2023-02-23T04:03:35;30.38;;;14.55;;
35745;SDS011;21870;42.812;74.628;2023-02-23T04:06:23;35.15;;;15.88;;
35745;SDS011;21870;42.812;74.628;2023-02-23T04:09:11;29.58;;;16.02;;
35745;SDS011;21870;42.812;74.628;2023-02-23T04:14:44;33.95;;;12.98;;
35745;SDS011;21870;42.812;74.628;2023-02-23T04:17:26;25.55;;;14.07;;
35745;SDS011;21870;42.812;74.628;2023-02-23T04:19:54;29.90;;;13.48;;
35745;SDS011;21870;42.812;74.628;2023-02-23T04:22:21;42.95;;;14.77;;
35745;SDS011;21870;42.812;74.628;2023-02-23T04:24:47;29.85;;;13.88;;
35745;SDS011;21870;42.812;74.628;2023-02-23T04:27:14;32.15;;;14.45;;
35745;SDS011;21870;42.812;74.628;2023-02-23T04:29:41;36.03;;;13.43;;
35745;SDS011;21870;42.812;74.628;2023-02-23T04:32:17;39.13;;;16.17;;
35745;SDS011;21870;42.812;74.628;2023-02-23T04:34:46;32.55;;;15.23;;
35745;SDS011;21870;42.812;74.628;2023-02-23T04:37:13;32.00;;;14.30;;
35745;SDS011;21870;42.812;74.628;2023-02-23T04:39:39;30.23;;;14.13;;
35745;SDS011;21870;42.812;74.628;2023-02-23T04:42:07;34.63;;;13.20;;
35745;SDS011;21870;42.812;74.628;2023-02-23T04:44:34;29.15;;;13.55;;
35745;SDS011;21870;42.812;74.628;2023-02-23T04:47:00;29.70;;;13.77;;
35745;SDS011;21870;42.812;74.628;2023-02-23T04:49:26;24.30;;;13.13;;
35745;SDS011;21870;42.812;74.628;2023-02-23T04:51:52;31.63;;;14.35;;
35745;SDS011;21870;42.812;74.628;2023-02-23T04:54:18;34.45;;;13.88;;
35745;SDS011;21870;42.812;74.628;2023-02-23T04:56:44;37.78;;;14.20;;
35745;SDS011;21870;42.812;74.628;2023-02-23T04:59:10;29.13;;;14.82;;
35745;SDS011;21870;42.812;74.628;2023-02-23T05:01:37;24.27;;;13.75;;
35745;SDS011;21870;42.812;74.628;2023-02-23T05:04:03;33.83;;;13.48;;
35745;SDS011;21870;42.812;74.628;2023-02-23T05:06:30;39.17;;;15.30;;
35745;SDS011;21870;42.812;74.628;2023-02-23T05:08:56;32.53;;;14.23;;
35745;SDS011;21870;42.812;74.628;2023-02-23T05:11:22;41.55;;;15.95;;
35745;SDS011;21870;42.812;74.628;2023-02-23T05:13:50;33.60;;;14.55;;
35745;SDS011;21870;42.812;74.628;2023-02-23T05:16:17;30.80;;;14.85;;
35745;SDS011;21870;42.812;74.628;2023-02-23T05:18:43;40.55;;;17.25;;
35745;SDS011;21870;42.812;74.628;2023-02-23T05:21:09;34.78;;;14.32;;
35745;SDS011;21870;42.812;74.628;2023-02-23T05:23:36;29.30;;;13.95;;
35745;SDS011;21870;42.812;74.628;2023-02-23T05:26:03;32.10;;;14.13;;
35745;SDS011;21870;42.812;74.628;2023-02-23T05:28:31;39.63;;;14.25;;
35745;SDS011;21870;42.812;74.628;2023-02-23T05:30:59;39.13;;;13.25;;
35745;SDS011;21870;42.812;74.628;2023-02-23T05:33:28;32.75;;;15.32;;
35745;SDS011;21870;42.812;74.628;2023-02-23T05:35:54;38.65;;;13.63;;
35745;SDS011;21870;42.812;74.628;2023-02-23T05:38:24;33.65;;;14.15;;
35745;SDS011;21870;42.812;74.628;2023-02-23T05:40:54;42.22;;;14.30;;
35745;SDS011;21870;42.812;74.628;2023-02-23T05:43:20;31.27;;;13.20;;
35745;SDS011;21870;42.812;74.628;2023-02-23T05:45:46;33.05;;;15.15;;
35745;SDS011;21870;42.812;74.628;2023-02-23T05:48:12;32.40;;;13.05;;
35745;SDS011;21870;42.812;74.628;2023-02-23T05:50:38;32.45;;;14.10;;
35745;SDS011;21870;42.812;74.628;2023-02-23T05:53:04;31.20;;;13.63;;
35745;SDS011;21870;42.812;74.628;2023-02-23T05:55:30;36.75;;;16.00;;
35745;SDS011;21870;42.812;74.628;2023-02-23T05:57:56;29.70;;;13.98;;
35745;SDS011;21870;42.812;74.628;2023-02-23T06:00:22;28.85;;;13.73;;
35745;SDS011;21870;42.812;74.628;2023-02-23T06:02:49;38.08;;;14.65;;
35745;SDS011;21870;42.812;74.628;2023-02-23T06:05:17;31.85;;;14.90;;
35745;SDS011;21870;42.812;74.628;2023-02-23T06:07:43;30.52;;;14.55;;
35745;SDS011;21870;42.812;74.628;2023-02-23T06:10:09;34.72;;;14.98;;
35745;SDS011;21870;42.812;74.628;2023-02-23T06:12:36;40.88;;;16.60;;
35745;SDS011;21870;42.812;74.628;2023-02-23T06:15:02;31.98;;;15.32;;
35745;SDS011;21870;42.812;74.628;2023-02-23T06:17:28;29.42;;;14.23;;
35745;SDS011;21870;42.812;74.628;2023-02-23T06:19:55;36.42;;;14.70;;
35745;SDS011;21870;42.812;74.628;2023-02-23T06:22:21;28.67;;;15.10;;
35745;SDS011;21870;42.812;74.628;2023-02-23T06:24:47;37.75;;;15.48;;
35745;SDS011;21870;42.812;74.628;2023-02-23T06:27:13;31.05;;;14.75;;
35745;SDS011;21870;42.812;74.628;2023-02-23T06:29:40;30.63;;;12.55;;
35745;SDS011;21870;42.812;74.628;2023-02-23T06:32:06;36.40;;;14.82;;
35745;SDS011;21870;42.812;74.628;2023-02-23T06:34:32;34.47;;;13.80;;
35745;SDS011;21870;42.812;74.628;2023-02-23T06:36:58;32.80;;;14.02;;
35745;SDS011;21870;42.812;74.628;2023-02-23T06:39:24;39.45;;;14.40;;
35745;SDS011;21870;42.812;74.628;2023-02-23T06:41:50;29.65;;;14.93;;
35745;SDS011;21870;42.812;74.628;2023-02-23T06:44:19;33.72;;;14.77;;
35745;SDS011;21870;42.812;74.628;2023-02-23T06:46:46;33.05;;;13.40;;
35745;SDS011;21870;42.812;74.628;2023-02-23T06:49:12;26.63;;;12.82;;
35745;SDS011;21870;42.812;74.628;2023-02-23T06:51:38;31.40;;;12.77;;
35745;SDS011;21870;42.812;74.628;2023-02-23T06:54:04;31.73;;;12.57;;
35745;SDS011;21870;42.812;74.628;2023-02-23T06:56:31;37.40;;;13.13;;
35745;SDS011;21870;42.812;74.628;2023-02-23T06:58:57;27.10;;;12.70;;
35745;SDS011;21870;42.812;74.628;2023-02-23T07:01:23;24.98;;;11.48;;
35745;SDS011;21870;42.812;74.628;2023-02-23T07:03:49;26.80;;;10.75;;
35745;SDS011;21870;42.812;74.628;2023-02-23T07:06:15;31.40;;;12.02;;
35745;SDS011;21870;42.812;74.628;2023-02-23T07:08:41;22.20;;;11.23;;
35745;SDS011;21870;42.812;74.628;2023-02-23T07:11:11;24.00;;;12.35;;
35745;SDS011;21870;42.812;74.628;2023-02-23T07:13:40;25.35;;;11.10;;
35745;SDS011;21870;42.812;74.628;2023-02-23T07:16:06;33.70;;;9.55;;
35745;SDS011;21870;42.812;74.628;2023-02-23T07:18:33;25.95;;;11.20;;
35745;SDS011;21870;42.812;74.628;2023-02-23T07:20:59;23.90;;;10.77;;
35745;SDS011;21870;42.812;74.628;2023-02-23T07:23:26;27.60;;;12.15;;
35745;SDS011;21870;42.812;74.628;2023-02-23T07:25:52;22.92;;;9.38;;
35745;SDS011;21870;42.812;74.628;2023-02-23T07:28:24;29.25;;;10.15;;
35745;SDS011;21870;42.812;74.628;2023-02-23T07:30:56;25.80;;;10.07;;
35745;SDS011;21870;42.812;74.628;2023-02-23T07:33:23;27.92;;;10.95;;
35745;SDS011;21870;42.812;74.628;2023-02-23T07:35:50;30.65;;;10.25;;
35745;SDS011;21870;42.812;74.628;2023-02-23T07:38:16;22.33;;;10.02;;
35745;SDS011;21870;42.812;74.628;2023-02-23T07:40:43;23.73;;;10.32;;
35745;SDS011;21870;42.812;74.628;2023-02-23T07:43:12;32.55;;;10.27;;
35745;SDS011;21870;42.812;74.628;2023-02-23T07:45:38;27.95;;;12.85;;
35745;SDS011;21870;42.812;74.628;2023-02-23T07:48:04;25.75;;;10.13;;
35745;SDS011;21870;42.812;74.628;2023-02-23T07:50:30;22.42;;;8.07;;
35745;SDS011;21870;42.812;74.628;2023-02-23T07:52:57;34.58;;;14.50;;
35745;SDS011;21870;42.812;74.628;2023-02-23T07:55:24;28.70;;;11.00;;
35745;SDS011;21870;42.812;74.628;2023-02-23T07:57:50;23.33;;;7.65;;
35745;SDS011;21870;42.812;74.628;2023-02-23T08:00:16;27.73;;;8.95;;
35745;SDS011;21870;42.812;74.628;2023-02-23T08:02:42;26.50;;;10.50;;
35745;SDS011;21870;42.812;74.628;2023-02-23T08:05:08;28.58;;;9.40;;
35745;SDS011;21870;42.812;74.628;2023-02-23T08:07:35;25.55;;;8.50;;
35745;SDS011;21870;42.812;74.628;2023-02-23T08:10:02;26.42;;;9.68;;
35745;SDS011;21870;42.812;74.628;2023-02-23T08:12:30;31.73;;;11.30;;
35745;SDS011;21870;42.812;74.628;2023-02-23T08:14:57;22.25;;;11.02;;
35745;SDS011;21870;42.812;74.628;2023-02-23T08:17:24;29.50;;;10.20;;
35745;SDS011;21870;42.812;74.628;2023-02-23T08:19:50;34.00;;;12.35;;
35745;SDS011;21870;42.812;74.628;2023-02-23T08:22:18;30.80;;;8.88;;
35745;SDS011;21870;42.812;74.628;2023-02-23T08:24:45;21.63;;;8.20;;
35745;SDS011;21870;42.812;74.628;2023-02-23T08:27:14;19.23;;;7.28;;
35745;SDS011;21870;42.812;74.628;2023-02-23T08:29:43;22.85;;;8.40;;
35745;SDS011;21870;42.812;74.628;2023-02-23T08:32:09;29.08;;;10.18;;
35745;SDS011;21870;42.812;74.628;2023-02-23T08:34:39;23.02;;;9.65;;
35745;SDS011;21870;42.812;74.628;2023-02-23T08:37:07;27.83;;;9.63;;
35745;SDS011;21870;42.812;74.628;2023-02-23T08:39:34;35.85;;;11.45;;
35745;SDS011;21870;42.812;74.628;2023-02-23T08:42:01;27.30;;;9.45;;
35745;SDS011;21870;42.812;74.628;2023-02-23T08:44:28;38.30;;;11.02;;
35745;SDS011;21870;42.812;74.628;2023-02-23T08:46:54;27.50;;;9.88;;
35745;SDS011;21870;42.812;74.628;2023-02-23T08:49:22;21.52;;;8.35;;
35745;SDS011;21870;42.812;74.628;2023-02-23T08:51:50;27.00;;;9.02;;
35745;SDS011;21870;42.812;74.628;2023-02-23T08:54:16;25.92;;;9.80;;
35745;SDS011;21870;42.812;74.628;2023-02-23T08:56:44;26.73;;;9.48;;
35745;SDS011;21870;42.812;74.628;2023-02-23T08:59:10;40.72;;;10.43;;
35745;SDS011;21870;42.812;74.628;2023-02-23T09:01:38;23.75;;;9.18;;
35745;SDS011;21870;42.812;74.628;2023-02-23T09:04:04;28.73;;;10.25;;
35745;SDS011;21870;42.812;74.628;2023-02-23T09:06:30;18.63;;;8.70;;
35745;SDS011;21870;42.812;74.628;2023-02-23T09:08:59;28.38;;;8.35;;
35745;SDS011;21870;42.812;74.628;2023-02-23T09:11:26;24.80;;;9.68;;
35745;SDS011;21870;42.812;74.628;2023-02-23T09:13:52;28.42;;;9.00;;
35745;SDS011;21870;42.812;74.628;2023-02-23T09:16:19;39.05;;;10.73;;
35745;SDS011;21870;42.812;74.628;2023-02-23T09:18:45;58.30;;;14.65;;
35745;SDS011;21870;42.812;74.628;2023-02-23T09:21:15;33.38;;;11.95;;
35745;SDS011;21870;42.812;74.628;2023-02-23T09:23:50;27.92;;;10.38;;
35745;SDS011;21870;42.812;74.628;2023-02-23T09:26:20;48.15;;;17.00;;
35745;SDS011;21870;42.812;74.628;2023-02-23T09:28:47;51.00;;;15.15;;
35745;SDS011;21870;42.812;74.628;2023-02-23T09:31:19;51.35;;;15.30;;
35745;SDS011;21870;42.812;74.628;2023-02-23T09:33:46;49.47;;;18.13;;
35745;SDS011;21870;42.812;74.628;2023-02-23T09:36:14;48.45;;;15.80;;
35745;SDS011;21870;42.812;74.628;2023-02-23T09:38:42;59.72;;;19.05;;
35745;SDS011;21870;42.812;74.628;2023-02-23T09:44:14;55.20;;;18.88;;
35745;SDS011;21870;42.812;74.628;2023-02-23T09:49:22;47.63;;;19.65;;
35745;SDS011;21870;42.812;74.628;2023-02-23T09:51:53;57.35;;;23.20;;
35745;SDS011;21870;42.812;74.628;2023-02-23T09:54:27;48.55;;;23.00;;
35745;SDS011;21870;42.812;74.628;2023-02-23T09:56:56;65.85;;;24.63;;
35745;SDS011;21870;42.812;74.628;2023-02-23T09:59:29;66.32;;;25.60;;
35745;SDS011;21870;42.812;74.628;2023-02-23T10:04:26;60.33;;;24.10;;
35745;SDS011;21870;42.812;74.628;2023-02-23T10:07:03;53.50;;;22.05;;
35745;SDS011;21870;42.812;74.628;2023-02-23T10:12:18;55.25;;;20.77;;
35745;SDS011;21870;42.812;74.628;2023-02-23T10:23:36;45.67;;;18.60;;
35745;SDS011;21870;42.812;74.628;2023-02-23T10:26:13;51.30;;;17.05;;
35745;SDS011;21870;42.812;74.628;2023-02-23T10:28:45;65.32;;;20.50;;
35745;SDS011;21870;42.812;74.628;2023-02-23T10:34:15;44.42;;;17.33;;
35745;SDS011;21870;42.812;74.628;2023-02-23T10:36:55;59.13;;;19.10;;
35745;SDS011;21870;42.812;74.628;2023-02-23T10:39:30;51.10;;;19.92;;
35745;SDS011;21870;42.812;74.628;2023-02-23T10:41:58;45.08;;;18.75;;
35745;SDS011;21870;42.812;74.628;2023-02-23T10:44:28;53.20;;;18.58;;
35745;SDS011;21870;42.812;74.628;2023-02-23T10:47:00;43.45;;;18.20;;
35745;SDS011;21870;42.812;74.628;2023-02-23T10:49:51;39.95;;;17.08;;
35745;SDS011;21870;42.812;74.628;2023-02-23T10:52:30;37.92;;;16.75;;
35745;SDS011;21870;42.812;74.628;2023-02-23T10:55:03;34.28;;;16.85;;
35745;SDS011;21870;42.812;74.628;2023-02-23T10:57:34;56.25;;;17.75;;
35745;SDS011;21870;42.812;74.628;2023-02-23T11:02:35;46.72;;;16.33;;
35745;SDS011;21870;42.812;74.628;2023-02-23T11:05:02;59.63;;;20.50;;
35745;SDS011;21870;42.812;74.628;2023-02-23T11:07:32;40.63;;;18.10;;
35745;SDS011;21870;42.812;74.628;2023-02-23T11:10:14;49.45;;;18.73;;
35745;SDS011;21870;42.812;74.628;2023-02-23T11:12:51;41.65;;;17.52;;
35745;SDS011;21870;42.812;74.628;2023-02-23T11:18:00;43.08;;;15.85;;
35745;SDS011;21870;42.812;74.628;2023-02-23T11:23:25;44.63;;;17.23;;
35745;SDS011;21870;42.812;74.628;2023-02-23T11:26:03;37.33;;;16.10;;
35745;SDS011;21870;42.812;74.628;2023-02-23T11:28:47;33.00;;;15.27;;
35745;SDS011;21870;42.812;74.628;2023-02-23T11:31:19;31.23;;;14.68;;
35745;SDS011;21870;42.812;74.628;2023-02-23T11:33:52;40.97;;;16.63;;
35745;SDS011;21870;42.812;74.628;2023-02-23T11:41:32;26.67;;;10.93;;
35745;SDS011;21870;42.812;74.628;2023-02-23T11:44:01;33.42;;;11.95;;
35745;SDS011;21870;42.812;74.628;2023-02-23T11:46:28;39.40;;;12.32;;
35745;SDS011;21870;42.812;74.628;2023-02-23T11:49:00;25.10;;;10.77;;
35745;SDS011;21870;42.812;74.628;2023-02-23T11:53:58;28.80;;;11.15;;
35745;SDS011;21870;42.812;74.628;2023-02-23T11:56:26;32.30;;;10.48;;
35745;SDS011;21870;42.812;74.628;2023-02-23T11:58:56;24.13;;;11.00;;
35745;SDS011;21870;42.812;74.628;2023-02-23T12:09:44;35.13;;;12.77;;
35745;SDS011;21870;42.812;74.628;2023-02-23T12:12:13;29.30;;;12.38;;
35745;SDS011;21870;42.812;74.628;2023-02-23T12:17:24;33.53;;;15.90;;
35745;SDS011;21870;42.812;74.628;2023-02-23T12:19:55;44.33;;;16.38;;
35745;SDS011;21870;42.812;74.628;2023-02-23T12:23:28;30.98;;;14.93;;
35745;SDS011;21870;42.812;74.628;2023-02-23T12:25:39;39.75;;;17.45;;
35745;SDS011;21870;42.812;74.628;2023-02-23T12:28:12;38.40;;;15.73;;
35745;SDS011;21870;42.812;74.628;2023-02-23T12:33:52;34.30;;;13.68;;
35745;SDS011;21870;42.812;74.628;2023-02-23T12:41:47;36.30;;;9.85;;
35745;SDS011;21870;42.812;74.628;2023-02-23T12:49:54;34.67;;;17.25;;
35745;SDS011;21870;42.812;74.628;2023-02-23T12:55:48;41.70;;;20.35;;
35745;SDS011;21870;42.812;74.628;2023-02-23T13:03:59;36.58;;;20.70;;
35745;SDS011;21870;42.812;74.628;2023-02-23T13:18:01;53.60;;;29.67;;
35745;SDS011;21870;42.812;74.628;2023-02-23T13:23:19;40.88;;;24.95;;
35745;SDS011;21870;42.812;74.628;2023-02-23T13:28:53;56.65;;;34.08;;
35745;SDS011;21870;42.812;74.628;2023-02-23T13:31:31;57.70;;;33.15;;
35745;SDS011;21870;42.812;74.628;2023-02-23T13:34:05;66.47;;;35.58;;
35745;SDS011;21870;42.812;74.628;2023-02-23T13:36:35;61.13;;;36.28;;
35745;SDS011;21870;42.812;74.628;2023-02-23T13:44:28;54.20;;;35.10;;
35745;SDS011;21870;42.812;74.628;2023-02-23T13:52:51;62.22;;;40.53;;
35745;SDS011;21870;42.812;74.628;2023-02-23T13:57:52;63.88;;;34.78;;
35745;SDS011;21870;42.812;74.628;2023-02-23T14:00:41;58.45;;;33.17;;
35745;SDS011;21870;42.812;74.628;2023-02-23T14:03:19;51.50;;;31.45;;
35745;SDS011;21870;42.812;74.628;2023-02-23T14:05:51;48.45;;;30.17;;
35745;SDS011;21870;42.812;74.628;2023-02-23T14:08:36;49.58;;;30.17;;
35745;SDS011;21870;42.812;74.628;2023-02-23T14:11:03;51.30;;;27.85;;
35745;SDS011;21870;42.812;74.628;2023-02-23T14:13:32;51.85;;;30.38;;
35745;SDS011;21870;42.812;74.628;2023-02-23T14:16:07;61.88;;;36.20;;
35745;SDS011;21870;42.812;74.628;2023-02-23T14:18:48;51.85;;;29.52;;
35745;SDS011;21870;42.812;74.628;2023-02-23T14:21:23;55.67;;;35.00;;
35745;SDS011;21870;42.812;74.628;2023-02-23T14:24:23;58.60;;;40.75;;
35745;SDS011;21870;42.812;74.628;2023-02-23T14:29:29;61.05;;;37.88;;
35745;SDS011;21870;42.812;74.628;2023-02-23T14:32:00;58.83;;;39.83;;
35745;SDS011;21870;42.812;74.628;2023-02-23T14:34:43;71.70;;;46.22;;
35745;SDS011;21870;42.812;74.628;2023-02-23T14:37:28;63.88;;;41.63;;
35745;SDS011;21870;42.812;74.628;2023-02-23T14:42:40;120.40;;;79.32;;
35745;SDS011;21870;42.812;74.628;2023-02-23T14:47:51;89.57;;;53.83;;
35745;SDS011;21870;42.812;74.628;2023-02-23T14:50:31;85.38;;;50.50;;
35745;SDS011;21870;42.812;74.628;2023-02-23T14:52:59;80.78;;;47.75;;
35745;SDS011;21870;42.812;74.628;2023-02-23T14:55:32;82.60;;;44.55;;
35745;SDS011;21870;42.812;74.628;2023-02-23T14:58:17;72.63;;;46.50;;
35745;SDS011;21870;42.812;74.628;2023-02-23T15:00:52;65.82;;;40.92;;
35745;SDS011;21870;42.812;74.628;2023-02-23T15:03:19;71.13;;;41.80;;
35745;SDS011;21870;42.812;74.628;2023-02-23T15:08:19;66.88;;;38.85;;
35745;SDS011;21870;42.812;74.628;2023-02-23T15:10:50;71.05;;;44.97;;
35745;SDS011;21870;42.812;74.628;2023-02-23T15:16:05;70.75;;;46.30;;
35745;SDS011;21870;42.812;74.628;2023-02-23T15:18:37;73.57;;;46.03;;
35745;SDS011;21870;42.812;74.628;2023-02-23T15:21:26;64.03;;;45.28;;
35745;SDS011;21870;42.812;74.628;2023-02-23T15:23:56;63.45;;;42.70;;
35745;SDS011;21870;42.812;74.628;2023-02-23T15:26:31;62.03;;;41.45;;
35745;SDS011;21870;42.812;74.628;2023-02-23T15:29:10;53.67;;;36.85;;
35745;SDS011;21870;42.812;74.628;2023-02-23T15:31:48;55.38;;;35.10;;
35745;SDS011;21870;42.812;74.628;2023-02-23T15:34:20;57.25;;;32.92;;
35745;SDS011;21870;42.812;74.628;2023-02-23T15:36:53;62.05;;;36.05;;
35745;SDS011;21870;42.812;74.628;2023-02-23T15:39:38;53.40;;;31.50;;
35745;SDS011;21870;42.812;74.628;2023-02-23T15:42:17;44.05;;;27.40;;
35745;SDS011;21870;42.812;74.628;2023-02-23T15:47:59;48.33;;;25.67;;
35745;SDS011;21870;42.812;74.628;2023-02-23T15:50:31;48.28;;;25.65;;
35745;SDS011;21870;42.812;74.628;2023-02-23T15:53:01;41.00;;;23.92;;
35745;SDS011;21870;42.812;74.628;2023-02-23T15:55:37;46.20;;;24.08;;
35745;SDS011;21870;42.812;74.628;2023-02-23T15:58:11;53.55;;;23.83;;
35745;SDS011;21870;42.812;74.628;2023-02-23T16:00:59;32.13;;;20.90;;
35745;SDS011;21870;42.812;74.628;2023-02-23T16:03:59;33.25;;;20.02;;
35745;SDS011;21870;42.812;74.628;2023-02-23T16:07:24;38.28;;;20.75;;
35745;SDS011;21870;42.812;74.628;2023-02-23T16:17:57;36.20;;;18.08;;
35745;SDS011;21870;42.812;74.628;2023-02-23T16:20:31;36.30;;;19.10;;
35745;SDS011;21870;42.812;74.628;2023-02-23T16:25:59;37.60;;;19.52;;
35745;SDS011;21870;42.812;74.628;2023-02-23T16:28:32;35.92;;;20.80;;
35745;SDS011;21870;42.812;74.628;2023-02-23T16:33:29;36.28;;;20.50;;
35745;SDS011;21870;42.812;74.628;2023-02-23T16:36:11;35.63;;;17.35;;
35745;SDS011;21870;42.812;74.628;2023-02-23T16:38:57;27.27;;;15.20;;
35745;SDS011;21870;42.812;74.628;2023-02-23T16:41:29;34.63;;;14.70;;
35745;SDS011;21870;42.812;74.628;2023-02-23T16:44:00;29.48;;;14.27;;
35745;SDS011;21870;42.812;74.628;2023-02-23T16:46:30;27.00;;;12.80;;
35745;SDS011;21870;42.812;74.628;2023-02-23T16:49:01;18.67;;;11.63;;
35745;SDS011;21870;42.812;74.628;2023-02-23T16:51:34;19.30;;;12.23;;
35745;SDS011;21870;42.812;74.628;2023-02-23T16:54:00;17.25;;;10.63;;
35745;SDS011;21870;42.812;74.628;2023-02-23T16:56:30;27.20;;;14.38;;
35745;SDS011;21870;42.812;74.628;2023-02-23T16:59:00;33.15;;;17.48;;
35745;SDS011;21870;42.812;74.628;2023-02-23T17:01:28;33.40;;;16.10;;
35745;SDS011;21870;42.812;74.628;2023-02-23T17:03:54;35.28;;;19.00;;
35745;SDS011;21870;42.812;74.628;2023-02-23T17:06:23;41.65;;;20.30;;
35745;SDS011;21870;42.812;74.628;2023-02-23T17:08:49;36.95;;;19.55;;
35745;SDS011;21870;42.812;74.628;2023-02-23T17:11:15;38.22;;;21.08;;
35745;SDS011;21870;42.812;74.628;2023-02-23T17:13:41;33.15;;;20.88;;
35745;SDS011;21870;42.812;74.628;2023-02-23T17:16:09;29.90;;;19.17;;
35745;SDS011;21870;42.812;74.628;2023-02-23T17:18:36;35.33;;;22.80;;
35745;SDS011;21870;42.812;74.628;2023-02-23T17:21:07;38.28;;;23.52;;
35745;SDS011;21870;42.812;74.628;2023-02-23T17:23:36;38.83;;;22.92;;
35745;SDS011;21870;42.812;74.628;2023-02-23T17:26:12;43.67;;;25.65;;
35745;SDS011;21870;42.812;74.628;2023-02-23T17:28:39;40.35;;;23.35;;
35745;SDS011;21870;42.812;74.628;2023-02-23T17:31:05;29.30;;;19.75;;
35745;SDS011;21870;42.812;74.628;2023-02-23T17:33:32;31.20;;;19.77;;
35745;SDS011;21870;42.812;74.628;2023-02-23T17:36:01;32.47;;;20.17;;
35745;SDS011;21870;42.812;74.628;2023-02-23T17:38:30;38.90;;;19.98;;